DLH438 EDDF-KDFW
Flight info
| Callsign | DLH438 |
|---|---|
| Flight time | N/A |
| Altitude | 34000 |
| Route | OBOKA3W/25C OBOKA Z28 DIBIR DCT BUDIP DCT MIMVA L602 NALAX L46 GETNO DCT MIMKU/N0471F360 DCT BILTO/M081F370 DCT 5730N02000W 5830N03000W 5830N04000W 5630N05000W DCT IRLOK/N0462F380 N732B YBC DCT YRQ DCT OBRON DCT YUL DCT JHW DCT FOXEE/N0455F400 DCT EMPTY DCT GVR DCT TIIDE DCT HUMBO DCT FEWWW SEEVR4 |
| Aircraft | A343/H-SDE2E3FGHIJ4J5M1RWXY/LB1D1 |
Departure
| Time | 2026-04-17 21:08 |
|---|---|
| Airport | Frankfurt Main Airport (EDDF) |
Arrival
| Time | N/A |
|---|---|
| Airport | Dallas Fort Worth International Airport (KDFW) |
| Time | Latitude | Longitude | Altitude | Speed | Heading |
|---|---|---|---|---|---|
| 2026-04-17 19:52 | 50.04766 | 8.56383 | 360 ft | 0 kts | 340° |
| 2026-04-17 19:55 | 50.04674 | 8.56045 | 366 ft | 0 kts | 340° |
| 2026-04-17 20:53 | 50.04661 | 8.56052 | 360 ft | 3 kts | 340° |
| 2026-04-17 20:54 | 50.04649 | 8.56059 | 367 ft | 3 kts | 340° |
| 2026-04-17 20:54 | 50.04630 | 8.56070 | 365 ft | 3 kts | 343° |
| 2026-04-17 20:54 | 50.04610 | 8.56076 | 366 ft | 3 kts | 0° |
| 2026-04-17 20:54 | 50.04590 | 8.56074 | 367 ft | 3 kts | 358° |
| 2026-04-17 20:55 | 50.04579 | 8.56072 | 366 ft | 3 kts | 291° |
| 2026-04-17 20:55 | 50.04575 | 8.56049 | 366 ft | 2 kts | 249° |
| 2026-04-17 20:55 | 50.04578 | 8.56060 | 366 ft | 3 kts | 248° |
| 2026-04-17 20:55 | 50.04584 | 8.56086 | 363 ft | 4 kts | 248° |
| 2026-04-17 20:59 | 50.04581 | 8.56075 | 366 ft | 3 kts | 248° |
| 2026-04-17 20:59 | 50.04557 | 8.55999 | 363 ft | 11 kts | 232° |
| 2026-04-17 20:59 | 50.04494 | 8.55946 | 366 ft | 10 kts | 202° |
| 2026-04-17 21:00 | 50.04432 | 8.55916 | 360 ft | 9 kts | 192° |
| 2026-04-17 21:00 | 50.04369 | 8.55922 | 368 ft | 9 kts | 167° |
| 2026-04-17 21:00 | 50.04306 | 8.55953 | 363 ft | 10 kts | 164° |
| 2026-04-17 21:00 | 50.04240 | 8.55936 | 360 ft | 11 kts | 205° |
| 2026-04-17 21:01 | 50.04162 | 8.55935 | 364 ft | 14 kts | 166° |
| 2026-04-17 21:01 | 50.04084 | 8.56027 | 362 ft | 15 kts | 101° |
| 2026-04-17 21:01 | 50.04102 | 8.56174 | 363 ft | 13 kts | 70° |
| 2026-04-17 21:01 | 50.04136 | 8.56314 | 358 ft | 14 kts | 70° |
| 2026-04-17 21:02 | 50.04165 | 8.56437 | 364 ft | 11 kts | 69° |
| 2026-04-17 21:02 | 50.04194 | 8.56556 | 365 ft | 16 kts | 69° |
| 2026-04-17 21:02 | 50.04235 | 8.56727 | 365 ft | 17 kts | 70° |
| 2026-04-17 21:02 | 50.04284 | 8.56931 | 371 ft | 25 kts | 69° |
| 2026-04-17 21:03 | 50.04353 | 8.57221 | 367 ft | 30 kts | 69° |
| 2026-04-17 21:03 | 50.04423 | 8.57522 | 367 ft | 28 kts | 70° |
| 2026-04-17 21:03 | 50.04477 | 8.57745 | 371 ft | 15 kts | 69° |
| 2026-04-17 21:03 | 50.04512 | 8.57889 | 374 ft | 14 kts | 69° |
| 2026-04-17 21:04 | 50.04523 | 8.57934 | 371 ft | 0 kts | 70° |
| 2026-04-17 21:05 | 50.04524 | 8.57937 | 370 ft | 2 kts | 70° |
| 2026-04-17 21:05 | 50.04532 | 8.58022 | 368 ft | 12 kts | 104° |
| 2026-04-17 21:05 | 50.04469 | 8.58099 | 375 ft | 11 kts | 158° |
| 2026-04-17 21:05 | 50.04406 | 8.58124 | 376 ft | 9 kts | 182° |
| 2026-04-17 21:06 | 50.04363 | 8.58069 | 374 ft | 8 kts | 248° |
| 2026-04-17 21:06 | 50.04357 | 8.58046 | 375 ft | 0 kts | 249° |
| 2026-04-17 21:06 | 50.04342 | 8.57986 | 371 ft | 22 kts | 249° |
| 2026-04-17 21:07 | 50.04224 | 8.57487 | 373 ft | 74 kts | 249° |
| 2026-04-17 21:07 | 50.03989 | 8.56504 | 360 ft | 119 kts | 250° |
| 2026-04-17 21:07 | 50.03655 | 8.55104 | 354 ft | 156 kts | 250° |
| 2026-04-17 21:07 | 50.03250 | 8.53426 | 587 ft | 167 kts | 250° |
| 2026-04-17 21:08 | 50.02848 | 8.51748 | 1043 ft | 165 kts | 250° |
| 2026-04-17 21:08 | 50.02439 | 8.50061 | 1437 ft | 169 kts | 247° |
| 2026-04-17 21:08 | 50.01739 | 8.48523 | 1718 ft | 182 kts | 220° |
| 2026-04-17 21:08 | 50.00691 | 8.47722 | 1983 ft | 193 kts | 192° |
| 2026-04-17 21:09 | 49.99325 | 8.47479 | 2399 ft | 200 kts | 184° |
| 2026-04-17 21:09 | 49.97908 | 8.47308 | 2788 ft | 212 kts | 185° |
| 2026-04-17 21:09 | 49.96365 | 8.47034 | 3041 ft | 233 kts | 190° |
| 2026-04-17 21:09 | 49.95048 | 8.46562 | 3325 ft | 247 kts | 195° |
| 2026-04-17 21:10 | 49.93367 | 8.45815 | 3901 ft | 255 kts | 196° |
| 2026-04-17 21:10 | 49.91718 | 8.44762 | 4528 ft | 260 kts | 215° |
| 2026-04-17 21:10 | 49.90518 | 8.42677 | 5231 ft | 262 kts | 237° |
| 2026-04-17 21:10 | 49.89575 | 8.40249 | 5951 ft | 264 kts | 239° |
| 2026-04-17 21:11 | 49.88758 | 8.37698 | 6650 ft | 267 kts | 252° |
| 2026-04-17 21:11 | 49.88573 | 8.34828 | 7296 ft | 271 kts | 272° |
| 2026-04-17 21:11 | 49.88727 | 8.31898 | 7941 ft | 274 kts | 274° |
| 2026-04-17 21:11 | 49.88911 | 8.28937 | 8562 ft | 278 kts | 276° |
| 2026-04-17 21:12 | 49.89412 | 8.26033 | 9178 ft | 283 kts | 296° |
| 2026-04-17 21:12 | 49.90477 | 8.23454 | 9834 ft | 285 kts | 305° |
| 2026-04-17 21:12 | 49.91675 | 8.20975 | 10365 ft | 290 kts | 306° |
| 2026-04-17 21:12 | 49.92915 | 8.18418 | 10694 ft | 303 kts | 305° |
| 2026-04-17 21:13 | 49.94282 | 8.15830 | 10960 ft | 317 kts | 313° |
| 2026-04-17 21:13 | 49.95943 | 8.13467 | 11230 ft | 331 kts | 317° |
| 2026-04-17 21:13 | 49.97730 | 8.11103 | 11494 ft | 343 kts | 318° |
| 2026-04-17 21:13 | 49.99577 | 8.08662 | 11818 ft | 353 kts | 318° |
| 2026-04-17 21:14 | 50.01460 | 8.06160 | 12290 ft | 358 kts | 317° |
| 2026-04-17 21:14 | 50.03361 | 8.03625 | 12824 ft | 361 kts | 317° |
| 2026-04-17 21:14 | 50.05271 | 8.01070 | 13388 ft | 364 kts | 317° |
| 2026-04-17 21:14 | 50.07195 | 7.98494 | 13967 ft | 367 kts | 317° |
| 2026-04-17 21:15 | 50.09138 | 7.95886 | 14484 ft | 369 kts | 317° |
| 2026-04-17 21:15 | 50.11091 | 7.93260 | 14984 ft | 372 kts | 317° |
| 2026-04-17 21:15 | 50.13055 | 7.90616 | 15499 ft | 375 kts | 317° |
| 2026-04-17 21:15 | 50.15035 | 7.87949 | 16006 ft | 378 kts | 317° |
| 2026-04-17 21:16 | 50.17031 | 7.85255 | 16516 ft | 380 kts | 317° |
| 2026-04-17 21:16 | 50.19037 | 7.82546 | 17026 ft | 383 kts | 317° |
| 2026-04-17 21:16 | 50.21054 | 7.79819 | 17529 ft | 386 kts | 317° |
| 2026-04-17 21:16 | 50.23062 | 7.77100 | 17997 ft | 388 kts | 317° |
| 2026-04-17 21:17 | 50.25169 | 7.74442 | 18489 ft | 392 kts | 323° |
| 2026-04-17 21:17 | 50.27567 | 7.72359 | 18939 ft | 397 kts | 333° |
| 2026-04-17 21:17 | 50.30102 | 7.70596 | 19367 ft | 400 kts | 334° |
| 2026-04-17 21:17 | 50.32661 | 7.68864 | 19779 ft | 403 kts | 334° |
| 2026-04-17 21:18 | 50.35237 | 7.67115 | 20193 ft | 405 kts | 334° |
| 2026-04-17 21:18 | 50.37830 | 7.65350 | 20629 ft | 407 kts | 334° |
| 2026-04-17 21:18 | 50.40437 | 7.63566 | 21056 ft | 409 kts | 334° |
| 2026-04-17 21:18 | 50.43052 | 7.61768 | 21481 ft | 411 kts | 334° |
| 2026-04-17 21:19 | 50.45676 | 7.59962 | 21885 ft | 414 kts | 334° |
| 2026-04-17 21:19 | 50.48320 | 7.58140 | 22279 ft | 416 kts | 334° |
| 2026-04-17 21:19 | 50.50975 | 7.56306 | 22653 ft | 418 kts | 334° |
| 2026-04-17 21:19 | 50.53646 | 7.54462 | 23034 ft | 421 kts | 334° |
| 2026-04-17 21:20 | 50.56267 | 7.52414 | 23404 ft | 421 kts | 327° |
| 2026-04-17 21:20 | 50.58759 | 7.49980 | 23782 ft | 422 kts | 324° |
| 2026-04-17 21:20 | 50.61225 | 7.47458 | 24085 ft | 424 kts | 324° |
| 2026-04-17 21:20 | 50.63701 | 7.44914 | 24366 ft | 427 kts | 324° |
| 2026-04-17 21:21 | 50.66197 | 7.42349 | 24659 ft | 429 kts | 324° |
| 2026-04-17 21:21 | 50.68708 | 7.39767 | 24982 ft | 431 kts | 324° |
| 2026-04-17 21:21 | 50.71218 | 7.37182 | 25295 ft | 432 kts | 324° |
| 2026-04-17 21:21 | 50.73628 | 7.34351 | 25579 ft | 432 kts | 316° |
| 2026-04-17 21:22 | 50.75710 | 7.30953 | 25867 ft | 430 kts | 307° |
| 2026-04-17 21:22 | 50.77544 | 7.27219 | 26153 ft | 431 kts | 304° |
| 2026-04-17 21:22 | 50.79298 | 7.23374 | 26459 ft | 432 kts | 303° |
| 2026-04-17 21:22 | 50.81019 | 7.19468 | 26744 ft | 433 kts | 302° |
| 2026-04-17 21:23 | 50.82730 | 7.15540 | 27015 ft | 435 kts | 302° |
| 2026-04-17 21:23 | 50.84450 | 7.11596 | 27290 ft | 436 kts | 302° |
| 2026-04-17 21:23 | 50.86181 | 7.07649 | 27554 ft | 438 kts | 303° |
| 2026-04-17 21:23 | 50.87924 | 7.03692 | 27807 ft | 440 kts | 302° |
| 2026-04-17 21:24 | 50.89682 | 6.99711 | 28006 ft | 442 kts | 302° |
| 2026-04-17 21:24 | 50.91457 | 6.95707 | 28258 ft | 444 kts | 302° |
| 2026-04-17 21:24 | 50.93230 | 6.91703 | 28508 ft | 445 kts | 302° |
| 2026-04-17 21:24 | 50.95013 | 6.87667 | 28757 ft | 447 kts | 302° |
| 2026-04-17 21:25 | 50.96792 | 6.83629 | 28985 ft | 448 kts | 302° |
| 2026-04-17 21:25 | 50.98579 | 6.79568 | 29231 ft | 450 kts | 302° |
| 2026-04-17 21:25 | 51.00373 | 6.75486 | 29442 ft | 451 kts | 302° |
| 2026-04-17 21:25 | 51.02169 | 6.71390 | 29672 ft | 452 kts | 302° |
| 2026-04-17 21:26 | 51.03969 | 6.67280 | 29877 ft | 454 kts | 302° |
| 2026-04-17 21:26 | 51.05771 | 6.63158 | 30127 ft | 455 kts | 302° |
| 2026-04-17 21:26 | 51.07583 | 6.59009 | 30276 ft | 458 kts | 301° |
| 2026-04-17 21:26 | 51.09392 | 6.54858 | 30497 ft | 458 kts | 301° |
| 2026-04-17 21:27 | 51.11184 | 6.50735 | 30749 ft | 457 kts | 301° |
| 2026-04-17 21:27 | 51.12992 | 6.46571 | 30959 ft | 457 kts | 301° |
| 2026-04-17 21:27 | 51.14819 | 6.42360 | 31209 ft | 457 kts | 301° |
| 2026-04-17 21:27 | 51.16600 | 6.38249 | 31474 ft | 456 kts | 301° |
| 2026-04-17 21:28 | 51.18395 | 6.34098 | 31739 ft | 455 kts | 301° |
| 2026-04-17 21:28 | 51.20186 | 6.29949 | 31968 ft | 454 kts | 301° |
| 2026-04-17 21:28 | 51.21979 | 6.25788 | 32177 ft | 454 kts | 301° |
| 2026-04-17 21:28 | 51.23766 | 6.21633 | 32380 ft | 454 kts | 301° |
| 2026-04-17 21:29 | 51.25549 | 6.17483 | 32596 ft | 454 kts | 300° |
| 2026-04-17 21:29 | 51.27331 | 6.13325 | 32800 ft | 453 kts | 300° |
| 2026-04-17 21:29 | 51.29104 | 6.09161 | 33004 ft | 453 kts | 300° |
| 2026-04-17 21:29 | 51.30839 | 6.04969 | 33199 ft | 452 kts | 299° |
| 2026-04-17 21:30 | 51.32554 | 6.00755 | 33392 ft | 452 kts | 299° |
| 2026-04-17 21:30 | 51.34256 | 5.96547 | 33587 ft | 451 kts | 299° |
| 2026-04-17 21:30 | 51.35961 | 5.92331 | 33767 ft | 451 kts | 299° |
| 2026-04-17 21:30 | 51.37826 | 5.88277 | 33937 ft | 455 kts | 306° |
| 2026-04-17 21:31 | 51.40020 | 5.84609 | 34109 ft | 458 kts | 312° |
| 2026-04-17 21:31 | 51.42354 | 5.81117 | 34189 ft | 460 kts | 313° |
| 2026-04-17 21:31 | 51.47138 | 5.74281 | 34181 ft | 459 kts | 314° |
| 2026-04-17 21:32 | 51.51928 | 5.67531 | 34182 ft | 458 kts | 314° |